createdAt,value
2024-04-14T00:04:49.245Z,18.69
2024-04-14T00:10:04.134Z,19.07
2024-04-14T00:15:19.005Z,18.69
2024-04-14T00:20:33.823Z,18.75
2024-04-14T00:25:48.728Z,19.50
2024-04-14T00:31:03.582Z,19.17
2024-04-14T00:36:18.427Z,19.55
2024-04-14T00:41:33.356Z,19.34
2024-04-14T00:46:48.326Z,19.44
2024-04-14T00:52:03.194Z,19.17
2024-04-14T00:57:18.102Z,19.07
2024-04-14T01:02:32.968Z,18.58
2024-04-14T01:07:47.833Z,19.01
2024-04-14T01:13:02.653Z,19.44
2024-04-14T01:18:17.581Z,19.44
2024-04-14T01:23:32.407Z,19.01
2024-04-14T01:28:47.184Z,18.85
2024-04-14T01:34:02.130Z,19.34
2024-04-14T01:39:16.987Z,19.28
2024-04-14T01:44:31.727Z,18.96
2024-04-14T01:49:46.652Z,18.53
2024-04-14T01:55:01.659Z,18.69
2024-04-14T02:00:16.379Z,19.50
2024-04-14T02:05:31.178Z,18.42
2024-04-14T02:10:46.140Z,19.34
2024-04-14T02:16:00.987Z,19.17
2024-04-14T02:21:15.806Z,18.42
2024-04-14T02:26:30.675Z,18.85
2024-04-14T02:31:45.643Z,18.64
2024-04-14T02:37:00.572Z,18.69
2024-04-14T02:42:15.396Z,18.48
2024-04-14T02:47:30.317Z,19.28
2024-04-14T02:52:45.223Z,18.58
2024-04-14T02:58:00.130Z,18.37
2024-04-14T03:03:15.072Z,19.23
2024-04-14T03:08:29.865Z,19.39
2024-04-14T03:13:44.745Z,19.34
2024-04-14T03:18:59.607Z,19.01
2024-04-14T03:24:14.520Z,18.58
2024-04-14T03:29:29.475Z,19.23
2024-04-14T03:34:44.357Z,19.23
2024-04-14T03:39:59.253Z,19.17
2024-04-14T03:45:14.084Z,19.23
2024-04-14T03:50:28.978Z,19.07
2024-04-14T03:55:43.845Z,19.12
2024-04-14T04:00:58.853Z,18.75
2024-04-14T04:06:13.682Z,18.42
2024-04-14T04:11:28.597Z,19.12
2024-04-14T04:16:46.524Z,19.23
2024-04-14T04:21:58.159Z,18.42
2024-04-14T04:27:12.835Z,19.34
2024-04-14T04:32:27.652Z,19.28
2024-04-14T04:37:42.569Z,19.17
2024-04-14T04:42:57.669Z,18.64
2024-04-14T04:48:12.376Z,18.69
2024-04-14T04:53:27.424Z,18.69
2024-04-14T04:58:43.703Z,18.42
2024-04-14T05:03:57.055Z,19.28
2024-04-14T05:09:11.863Z,18.48
2024-04-14T05:14:26.710Z,18.58
2024-04-14T05:19:41.616Z,19.12
2024-04-14T05:24:59.795Z,18.64
2024-04-14T05:30:11.417Z,18.75
2024-04-14T05:35:26.255Z,18.85
2024-04-14T05:40:41.377Z,18.42
2024-04-14T05:45:56.359Z,19.28
2024-04-14T05:51:10.956Z,19.28
2024-04-14T05:56:27.930Z,19.39
2024-04-14T06:01:42.841Z,18.53
2024-04-14T06:06:57.882Z,19.01
2024-04-14T06:12:14.382Z,18.80
2024-04-14T06:17:29.294Z,18.48
2024-04-14T06:22:44.049Z,18.96
2024-04-14T06:27:59.023Z,19.07
2024-04-14T06:33:13.841Z,18.42
2024-04-14T06:38:28.615Z,18.58
2024-04-14T06:43:43.463Z,19.07
2024-04-14T06:48:58.603Z,18.32
2024-04-14T06:54:14.090Z,19.17
2024-04-14T06:59:28.179Z,18.91
2024-04-14T07:04:43.208Z,18.37
2024-04-14T07:09:58.017Z,18.53
2024-04-14T07:15:12.853Z,18.53
2024-04-14T07:20:28.641Z,18.37
2024-04-14T07:25:42.670Z,19.28
2024-04-14T07:30:57.507Z,18.37
2024-04-14T07:36:12.382Z,19.28
2024-04-14T07:41:27.419Z,19.12
2024-04-14T07:46:44.275Z,18.75
2024-04-14T07:51:59.257Z,18.58
2024-04-14T07:57:14.128Z,18.91
2024-04-14T08:02:29.045Z,18.32
2024-04-14T08:07:43.945Z,18.48
2024-04-14T08:12:58.857Z,19.07
2024-04-14T08:18:13.755Z,18.42
2024-04-14T08:23:28.554Z,18.53
2024-04-14T08:28:43.477Z,18.21
2024-04-14T08:33:58.608Z,18.96
2024-04-14T08:39:13.314Z,18.69
2024-04-14T08:44:28.330Z,18.37
2024-04-14T08:49:43.151Z,19.12
2024-04-14T08:54:58.071Z,18.96
2024-04-14T09:00:12.947Z,18.69
2024-04-14T09:05:27.780Z,19.07
2024-04-14T09:10:42.725Z,17.78
2024-04-14T09:15:57.685Z,18.15
2024-04-14T09:21:12.340Z,17.94
2024-04-14T09:26:27.305Z,18.58
2024-04-14T09:31:44.104Z,18.91
2024-04-14T09:36:59.012Z,18.21
2024-04-14T09:42:13.894Z,18.32
2024-04-14T09:47:31.025Z,19.12
2024-04-14T09:52:45.666Z,19.07
2024-04-14T09:58:00.702Z,19.12
2024-04-14T10:03:18.458Z,18.80
2024-04-14T10:08:32.498Z,18.53
2024-04-14T10:13:47.275Z,18.42
2024-04-14T10:19:02.157Z,18.91
2024-04-14T10:24:16.892Z,19.07
2024-04-14T10:29:31.850Z,18.75
2024-04-14T10:34:46.610Z,18.21
2024-04-14T10:40:01.505Z,18.37
2024-04-14T10:45:16.316Z,18.42
2024-04-14T10:50:31.292Z,18.53
2024-04-14T10:55:46.112Z,18.64
2024-04-14T11:01:01.049Z,18.26
2024-04-14T11:06:15.860Z,18.91
2024-04-14T11:11:30.896Z,18.21
2024-04-14T11:16:45.834Z,18.53
2024-04-14T11:22:02.776Z,19.23
2024-04-14T11:27:17.496Z,18.96
2024-04-14T11:32:32.460Z,18.85
2024-04-14T11:37:47.257Z,18.32
2024-04-14T11:43:02.148Z,19.17
2024-04-14T11:48:17.065Z,19.34
2024-04-14T11:53:32.039Z,18.32
2024-04-14T11:58:47.133Z,18.91
2024-04-14T12:04:01.900Z,18.42
2024-04-14T12:09:16.753Z,18.80
2024-04-14T12:14:31.600Z,19.01
2024-04-14T12:19:46.397Z,18.53
2024-04-14T12:25:01.276Z,18.21
2024-04-14T12:30:16.149Z,19.28
2024-04-14T12:35:31.051Z,18.48
2024-04-14T12:40:45.831Z,18.48
2024-04-14T12:46:00.851Z,18.15
2024-04-14T12:51:15.462Z,18.96
2024-04-14T12:56:30.331Z,18.26
2024-04-14T13:01:45.303Z,19.28
2024-04-14T13:07:00.234Z,18.37
2024-04-14T13:12:15.022Z,18.69
2024-04-14T13:17:29.824Z,18.96
2024-04-14T13:22:44.684Z,18.75
2024-04-14T13:27:59.538Z,18.80
2024-04-14T13:33:14.560Z,19.77
2024-04-14T13:38:29.324Z,17.94
2024-04-14T13:43:44.181Z,18.10
2024-04-14T13:48:59.053Z,18.85
2024-04-14T13:54:13.937Z,18.96
2024-04-14T13:59:28.869Z,19.01
2024-04-14T14:04:43.781Z,18.58
2024-04-14T14:09:58.473Z,17.89
2024-04-14T14:15:13.322Z,18.15
2024-04-14T14:20:28.247Z,18.91
2024-04-14T14:25:43.178Z,18.96
2024-04-14T14:30:58.084Z,18.58
2024-04-14T14:36:13.082Z,17.89
2024-04-14T14:41:28.054Z,18.48
2024-04-14T14:46:42.980Z,17.99
2024-04-14T14:51:57.941Z,18.80
2024-04-14T14:57:12.794Z,18.69
2024-04-14T15:02:27.680Z,18.64
2024-04-14T15:07:42.584Z,18.48
2024-04-14T15:12:57.572Z,18.21
2024-04-14T15:18:12.843Z,18.48
2024-04-14T15:23:27.777Z,18.26
2024-04-14T15:28:42.781Z,18.75
2024-04-14T15:33:57.648Z,18.85
2024-04-14T15:39:14.524Z,18.32
2024-04-14T15:44:29.434Z,18.42
2024-04-14T15:49:44.333Z,18.69
2024-04-14T15:54:59.391Z,18.75
2024-04-14T16:00:14.271Z,18.75
2024-04-14T16:05:29.327Z,19.07
2024-04-14T16:10:43.971Z,18.42
2024-04-14T16:15:58.955Z,17.89
2024-04-14T16:21:13.890Z,18.42
2024-04-14T16:26:28.826Z,18.26
2024-04-14T16:31:43.685Z,18.80
2024-04-14T16:36:58.635Z,17.94
2024-04-14T16:42:13.460Z,18.75
2024-04-14T16:47:28.455Z,19.07
2024-04-14T16:52:43.295Z,19.01
2024-04-14T16:57:58.146Z,18.75
2024-04-14T17:03:12.945Z,18.26
2024-04-14T17:08:28.689Z,18.37
2024-04-14T17:13:42.618Z,18.37
2024-04-14T17:18:57.607Z,18.91
2024-04-14T17:24:12.335Z,18.32
2024-04-14T17:29:27.371Z,18.85
2024-04-14T17:34:42.193Z,17.51
2024-04-14T17:39:57.101Z,18.75
2024-04-14T17:45:11.769Z,18.42
2024-04-14T17:50:26.992Z,18.64
2024-04-14T17:55:41.506Z,18.26
2024-04-14T18:00:56.392Z,18.85
2024-04-14T18:06:11.288Z,18.48
2024-04-14T18:11:26.148Z,18.80
2024-04-14T18:16:41.109Z,17.67
2024-04-14T18:21:56.004Z,18.26
2024-04-14T18:27:10.853Z,18.80
2024-04-14T18:32:25.657Z,17.89
2024-04-14T18:37:40.569Z,18.85
2024-04-14T18:42:55.455Z,18.80
2024-04-14T18:48:10.372Z,18.80
2024-04-14T18:53:25.555Z,18.85
2024-04-14T18:58:40.296Z,18.48
2024-04-14T19:03:55.312Z,18.32
2024-04-14T19:09:10.218Z,18.48
2024-04-14T19:14:25.011Z,18.53
2024-04-14T19:19:39.984Z,18.96
2024-04-14T19:24:54.896Z,18.85
2024-04-14T19:30:09.778Z,18.42
2024-04-14T19:35:25.922Z,18.80
2024-04-14T19:40:39.489Z,18.69
2024-04-14T19:45:54.391Z,17.78
2024-04-14T19:51:11.183Z,18.42
2024-04-14T19:56:26.060Z,18.32
2024-04-14T20:01:41.167Z,18.32
2024-04-14T20:06:56.023Z,18.85
2024-04-14T20:12:10.756Z,18.91
2024-04-14T20:17:25.674Z,18.58
2024-04-14T20:22:40.632Z,18.80
2024-04-14T20:27:55.452Z,18.91
2024-04-14T20:33:10.298Z,18.42
2024-04-14T20:38:25.288Z,18.32
2024-04-14T20:43:40.105Z,18.26
2024-04-14T20:48:55.153Z,18.75
2024-04-14T20:54:09.899Z,18.37
2024-04-14T20:59:24.829Z,18.91
2024-04-14T21:04:45.881Z,17.78
2024-04-14T21:09:54.562Z,18.58
2024-04-14T21:15:09.406Z,17.78
2024-04-14T21:20:24.381Z,18.58
2024-04-14T21:25:41.296Z,18.80
2024-04-14T21:30:56.260Z,18.48
2024-04-14T21:36:11.059Z,18.32
2024-04-14T21:41:25.962Z,18.15
2024-04-14T21:46:40.840Z,18.64
2024-04-14T21:51:55.752Z,18.96
2024-04-14T21:57:10.986Z,18.10
2024-04-14T22:02:25.913Z,18.85
2024-04-14T22:07:40.757Z,18.69
2024-04-14T22:12:55.743Z,18.53
2024-04-14T22:18:10.967Z,18.80
2024-04-14T22:23:25.784Z,18.42
2024-04-14T22:28:40.715Z,18.05
2024-04-14T22:33:55.680Z,18.42
2024-04-14T22:39:10.542Z,18.48
2024-04-14T22:44:25.519Z,18.58
2024-04-14T22:49:40.485Z,18.48
2024-04-14T22:54:57.228Z,18.15
2024-04-14T23:00:12.177Z,18.96
2024-04-14T23:05:27.054Z,20.14
2024-04-14T23:10:41.882Z,21.11
2024-04-14T23:15:56.787Z,20.89
2024-04-14T23:21:11.679Z,22.67
2024-04-14T23:26:26.634Z,22.61
2024-04-14T23:31:41.472Z,22.13
2024-04-14T23:36:56.630Z,22.61
2024-04-14T23:42:11.316Z,22.83
2024-04-14T23:47:26.430Z,22.08
2024-04-14T23:52:41.078Z,22.18
2024-04-14T23:57:56.094Z,22.88
